createdAt,value
2019-04-07T00:00:22.246Z,31.50
2019-04-07T00:02:53.139Z,31.53
2019-04-07T00:05:23.572Z,30.10
2019-04-07T00:07:55.288Z,29.70
2019-04-07T00:10:25.955Z,29.27
2019-04-07T00:12:58.331Z,25.23
2019-04-07T00:15:29.016Z,27.67
2019-04-07T00:17:59.421Z,30.57
2019-04-07T00:20:29.865Z,30.30
2019-04-07T00:23:00.188Z,26.37
2019-04-07T00:25:30.579Z,26.17
2019-04-07T00:28:01.005Z,24.20
2019-04-07T00:30:31.646Z,25.77
2019-04-07T00:33:02.163Z,26.20
2019-04-07T00:35:34.843Z,25.13
2019-04-07T00:38:05.417Z,24.70
2019-04-07T00:40:37.141Z,24.67
2019-04-07T00:43:07.512Z,21.20
2019-04-07T00:45:37.958Z,19.63
2019-04-07T00:48:08.239Z,22.47
2019-04-07T00:50:38.611Z,21.03
2019-04-07T00:53:09.060Z,25.77
2019-04-07T00:55:39.680Z,25.87
2019-04-07T00:58:09.985Z,24.57
2019-04-07T01:00:42.729Z,28.57
2019-04-07T01:03:13.681Z,25.97
2019-04-07T01:05:44.045Z,24.87
2019-04-07T01:08:15.444Z,25.90
2019-04-07T01:10:45.912Z,24.23
2019-04-07T01:13:16.605Z,24.83
2019-04-07T01:15:47.047Z,26.87
2019-04-07T01:18:17.402Z,27.10
2019-04-07T01:20:48.451Z,24.23
2019-04-07T01:23:19.350Z,23.10
2019-04-07T01:25:50.074Z,23.27
2019-04-07T01:28:20.874Z,22.37
2019-04-07T01:30:51.699Z,22.23
2019-04-07T01:33:22.296Z,22.30
2019-04-07T01:35:53.026Z,24.20
2019-04-07T01:38:23.450Z,20.83
2019-04-07T01:41:06.304Z,22.80
2019-04-07T01:43:58.399Z,23.57
2019-04-07T01:46:38.705Z,22.40
2019-04-07T01:49:27.262Z,22.80
2019-04-07T01:52:21.092Z,21.73
2019-04-07T01:55:09.205Z,22.77
2019-04-07T01:57:47.762Z,22.80
2019-04-07T02:00:24.980Z,23.23
2019-04-07T02:03:04.802Z,22.43
2019-04-07T02:05:59.287Z,21.27
2019-04-07T02:08:47.521Z,20.73
2019-04-07T02:11:35.466Z,19.80
2019-04-07T02:14:37.772Z,22.00
2019-04-07T02:17:33.369Z,19.93
2019-04-07T02:20:09.279Z,23.27
2019-04-07T02:22:58.618Z,22.50
2019-04-07T02:26:08.870Z,23.13
2019-04-07T02:28:52.640Z,19.53
2019-04-07T02:31:45.079Z,21.50
2019-04-07T02:34:27.885Z,20.77
2019-04-07T02:37:08.431Z,20.20
2019-04-07T02:39:54.947Z,20.17
2019-04-07T02:42:42.910Z,20.03
2019-04-07T02:45:38.313Z,21.40
2019-04-07T02:48:18.874Z,21.23
2019-04-07T02:51:13.131Z,23.13
2019-04-07T02:54:09.188Z,24.77
2019-04-07T02:56:52.535Z,24.80
2019-04-07T02:59:48.133Z,23.83
2019-04-07T03:02:41.192Z,25.67
2019-04-07T03:05:30.532Z,25.00
2019-04-07T03:08:08.663Z,21.10
2019-04-07T03:11:05.837Z,21.43
2019-04-07T03:13:54.442Z,22.07
2019-04-07T03:16:36.203Z,21.03
2019-04-07T03:19:22.061Z,22.73
2019-04-07T03:22:16.049Z,22.23
2019-04-07T03:24:52.973Z,20.13
2019-04-07T03:27:48.773Z,19.83
2019-04-07T03:30:28.400Z,21.43
2019-04-07T03:33:22.797Z,21.47
2019-04-07T03:36:18.001Z,24.13
2019-04-07T03:39:13.501Z,22.20
2019-04-07T03:42:03.042Z,21.60
2019-04-07T03:44:55.426Z,22.10
2019-04-07T03:47:40.330Z,24.63
2019-04-07T03:50:33.359Z,22.57
2019-04-07T03:53:17.986Z,20.37
2019-04-07T03:55:57.859Z,23.03
2019-04-07T03:58:39.775Z,18.43
2019-04-07T04:01:29.986Z,20.17
2019-04-07T04:04:34.866Z,18.87
2019-04-07T04:07:20.276Z,19.93
2019-04-07T04:10:04.136Z,19.70
2019-04-07T04:12:41.816Z,22.83
2019-04-07T04:15:22.282Z,18.57
2019-04-07T04:17:53.800Z,19.57
2019-04-07T04:20:24.261Z,18.43
2019-04-07T04:22:54.795Z,17.87
2019-04-07T04:25:25.035Z,18.87
2019-04-07T04:27:55.262Z,17.73
2019-04-07T04:30:25.748Z,20.27
2019-04-07T04:32:56.233Z,18.17
2019-04-07T04:35:26.691Z,19.67
2019-04-07T04:37:57.009Z,18.70
2019-04-07T04:40:28.059Z,19.17
2019-04-07T04:42:58.600Z,19.10
2019-04-07T04:45:29.906Z,18.70
2019-04-07T04:48:00.252Z,17.47
2019-04-07T04:50:30.522Z,18.93
2019-04-07T04:53:01.966Z,17.37
2019-04-07T04:55:32.462Z,19.27
2019-04-07T04:58:02.760Z,17.03
2019-04-07T05:00:34.051Z,17.63
2019-04-07T05:03:05.740Z,15.97
2019-04-07T05:05:36.795Z,16.93
2019-04-07T05:08:08.245Z,15.23
2019-04-07T05:10:39.212Z,19.50
2019-04-07T05:13:09.849Z,14.93
2019-04-07T05:15:44.457Z,14.13
2019-04-07T05:18:16.564Z,15.20
2019-04-07T05:20:47.743Z,14.23
2019-04-07T05:23:19.638Z,15.63
2019-04-07T05:25:50.429Z,15.20
2019-04-07T05:28:21.243Z,15.43
2019-04-07T05:30:54.324Z,13.23
2019-04-07T05:33:26.683Z,12.57
2019-04-07T05:35:59.348Z,13.33
2019-04-07T05:38:30.258Z,13.63
2019-04-07T05:41:01.873Z,14.33
2019-04-07T05:43:33.869Z,15.43
2019-04-07T05:46:06.512Z,12.40
2019-04-07T05:48:36.098Z,15.70
2019-04-07T05:51:07.114Z,15.00
2019-04-07T05:53:37.739Z,13.03
2019-04-07T05:56:08.632Z,13.63
2019-04-07T05:58:41.152Z,15.83
2019-04-07T06:01:10.850Z,14.53
2019-04-07T06:03:42.842Z,15.60
2019-04-07T06:06:13.432Z,12.43
2019-04-07T06:08:46.954Z,13.03
2019-04-07T06:11:16.964Z,13.63
2019-04-07T06:13:47.516Z,12.10
2019-04-07T06:16:18.535Z,13.67
2019-04-07T06:18:50.150Z,16.53
2019-04-07T06:21:23.404Z,13.97
2019-04-07T06:23:58.406Z,12.03
2019-04-07T06:26:27.789Z,23.13
2019-04-07T06:28:58.849Z,15.17
2019-04-07T06:31:32.220Z,11.57
2019-04-07T06:34:04.180Z,12.03
2019-04-07T06:36:35.063Z,13.27
2019-04-07T06:39:08.387Z,13.17
2019-04-07T06:41:39.028Z,11.33
2019-04-07T06:44:13.502Z,12.17
2019-04-07T06:46:53.578Z,11.80
2019-04-07T06:49:54.968Z,11.93
2019-04-07T06:52:41.037Z,10.07
2019-04-07T06:55:32.840Z,10.03
2019-04-07T06:58:21.028Z,11.27
2019-04-07T07:01:05.877Z,12.57
2019-04-07T07:03:53.847Z,12.10
2019-04-07T07:06:37.341Z,14.03
2019-04-07T07:09:26.547Z,12.30
2019-04-07T07:12:22.701Z,12.27
2019-04-07T07:15:05.998Z,10.60
2019-04-07T07:17:42.243Z,11.03
2019-04-07T07:20:38.190Z,10.80
2019-04-07T07:23:15.754Z,12.13
2019-04-07T07:25:46.520Z,13.50
2019-04-07T07:28:17.341Z,11.03
2019-04-07T07:30:51.040Z,10.73
2019-04-07T07:33:20.292Z,11.47
2019-04-07T07:35:50.847Z,9.03
2019-04-07T07:38:21.362Z,10.53
2019-04-07T07:40:51.658Z,11.17
2019-04-07T07:43:22.712Z,10.27
2019-04-07T07:45:52.998Z,10.50
2019-04-07T07:48:26.183Z,10.50
2019-04-07T07:50:55.831Z,10.13
2019-04-07T07:53:28.245Z,10.13
2019-04-07T07:55:58.189Z,9.77
2019-04-07T07:58:31.619Z,9.60
2019-04-07T08:01:01.432Z,10.23
2019-04-07T08:03:31.791Z,11.47
2019-04-07T08:06:04.655Z,11.00
2019-04-07T08:08:34.267Z,10.87
2019-04-07T08:11:04.635Z,11.03
2019-04-07T08:13:43.441Z,11.30
2019-04-07T08:16:09.832Z,11.47
2019-04-07T08:18:43.417Z,10.70
2019-04-07T08:21:12.603Z,14.37
2019-04-07T08:23:45.419Z,12.80
2019-04-07T08:26:15.935Z,14.47
2019-04-07T08:28:46.316Z,12.30
2019-04-07T08:31:19.643Z,14.33
2019-04-07T08:33:51.825Z,15.00
2019-04-07T08:36:23.769Z,12.60
2019-04-07T08:38:56.990Z,11.57
2019-04-07T08:41:29.131Z,13.23
2019-04-07T08:44:00.246Z,11.77
2019-04-07T08:46:39.435Z,15.60
2019-04-07T08:49:06.559Z,14.77
2019-04-07T08:51:36.818Z,14.17
2019-04-07T08:54:07.391Z,13.40
2019-04-07T08:56:37.740Z,16.40
2019-04-07T08:59:16.811Z,15.07
2019-04-07T09:01:45.200Z,16.13
2019-04-07T09:04:16.967Z,14.13
2019-04-07T09:06:48.768Z,14.17
2019-04-07T09:09:31.190Z,15.47
2019-04-07T09:11:54.987Z,15.50
2019-04-07T09:14:25.214Z,16.37
2019-04-07T09:17:35.495Z,14.80
2019-04-07T09:20:13.513Z,16.07
2019-04-07T09:23:03.011Z,15.03
2019-04-07T09:25:53.175Z,14.53
2019-04-07T09:28:33.175Z,15.77
2019-04-07T09:31:09.614Z,14.77
2019-04-07T09:34:18.226Z,14.70
2019-04-07T09:37:04.653Z,14.67
2019-04-07T09:39:58.518Z,15.17
2019-04-07T09:43:01.332Z,13.47
2019-04-07T09:45:51.918Z,13.97
2019-04-07T09:48:40.565Z,17.20
2019-04-07T09:51:58.412Z,14.33
2019-04-07T09:54:51.696Z,14.97
2019-04-07T09:57:54.888Z,16.10
2019-04-07T10:00:36.313Z,14.67
2019-04-07T10:03:35.467Z,20.53
2019-04-07T10:06:28.058Z,14.70
2019-04-07T10:09:23.192Z,14.97
2019-04-07T10:12:11.038Z,13.33
2019-04-07T10:15:02.158Z,15.47
2019-04-07T10:18:00.522Z,18.37
2019-04-07T10:21:01.710Z,16.23
2019-04-07T10:23:50.989Z,13.67
2019-04-07T10:26:32.534Z,14.47
2019-04-07T10:29:26.457Z,18.93
2019-04-07T10:32:11.395Z,15.97
2019-04-07T10:35:08.093Z,17.37
2019-04-07T10:38:15.405Z,14.90
2019-04-07T10:40:55.552Z,16.27
2019-04-07T10:43:53.648Z,17.03
2019-04-07T10:46:41.658Z,16.23
2019-04-07T10:49:40.614Z,17.57
2019-04-07T10:52:31.446Z,15.07
2019-04-07T10:55:20.733Z,17.87
2019-04-07T10:57:59.822Z,17.83
2019-04-07T11:00:50.788Z,12.70
2019-04-07T11:03:35.245Z,14.80
2019-04-07T11:06:21.520Z,15.53
2019-04-07T11:09:21.126Z,15.63
2019-04-07T11:12:28.821Z,15.87
2019-04-07T11:15:21.417Z,15.30
2019-04-07T11:18:16.506Z,13.73
2019-04-07T11:20:57.230Z,15.07
2019-04-07T11:23:41.456Z,16.43
2019-04-07T11:26:23.559Z,18.40
2019-04-07T11:29:04.599Z,13.73
2019-04-07T11:31:40.551Z,17.20
2019-04-07T11:34:29.328Z,19.63
2019-04-07T11:37:09.788Z,14.60
2019-04-07T11:39:53.470Z,18.97
2019-04-07T11:42:46.063Z,14.90
2019-04-07T11:45:56.433Z,17.23
2019-04-07T11:48:25.842Z,16.93
2019-04-07T11:51:07.289Z,15.97
2019-04-07T11:53:54.808Z,17.83
2019-04-07T11:56:43.416Z,15.53
2019-04-07T11:59:31.726Z,18.33
2019-04-07T12:02:18.649Z,15.70
2019-04-07T12:05:05.359Z,18.57
2019-04-07T12:08:13.917Z,17.07
2019-04-07T12:11:06.624Z,16.30
2019-04-07T12:13:44.632Z,16.60
2019-04-07T12:16:35.091Z,19.70
2019-04-07T12:19:12.597Z,18.07
2019-04-07T12:21:55.972Z,16.97
2019-04-07T12:24:49.081Z,21.87
2019-04-07T12:27:45.170Z,21.67
2019-04-07T12:30:37.978Z,23.37
2019-04-07T12:33:32.891Z,19.63
2019-04-07T12:36:30.823Z,19.03
2019-04-07T12:39:19.007Z,19.70
2019-04-07T12:41:58.077Z,20.07
2019-04-07T12:44:52.701Z,22.07
2019-04-07T12:47:37.522Z,22.37
2019-04-07T12:50:26.966Z,20.57
2019-04-07T12:53:15.443Z,21.93
2019-04-07T12:56:11.427Z,20.43
2019-04-07T12:58:58.329Z,19.00
2019-04-07T13:01:49.583Z,26.33
2019-04-07T13:04:37.874Z,17.17
2019-04-07T13:07:20.440Z,15.70
2019-04-07T13:10:00.303Z,19.63
2019-04-07T13:12:57.183Z,20.17
2019-04-07T13:15:48.943Z,18.87
2019-04-07T13:18:37.238Z,22.03
2019-04-07T13:21:16.635Z,21.10
2019-04-07T13:24:22.041Z,18.37
2019-04-07T13:27:05.830Z,19.47
2019-04-07T13:29:49.952Z,21.87
2019-04-07T13:32:43.219Z,24.50
2019-04-07T13:35:38.723Z,19.43
2019-04-07T13:38:34.005Z,19.60
2019-04-07T13:41:22.152Z,17.73
2019-04-07T13:44:12.845Z,18.07
2019-04-07T13:47:12.232Z,21.30
2019-04-07T13:50:02.407Z,24.80
2019-04-07T13:52:55.001Z,21.33
2019-04-07T13:55:32.300Z,22.03
2019-04-07T13:58:19.684Z,22.70
2019-04-07T14:01:18.105Z,24.63
2019-04-07T14:04:24.205Z,18.70
2019-04-07T14:07:19.873Z,20.53
2019-04-07T14:10:15.589Z,21.77
2019-04-07T14:13:06.222Z,19.30
2019-04-07T14:15:54.341Z,20.30
2019-04-07T14:18:54.125Z,20.80
2019-04-07T14:21:32.417Z,19.93
2019-04-07T14:24:15.213Z,19.73
2019-04-07T14:27:00.685Z,22.70
2019-04-07T14:29:52.760Z,19.63
2019-04-07T14:32:49.841Z,21.50
2019-04-07T14:35:39.131Z,19.43
2019-04-07T14:38:30.131Z,27.63
2019-04-07T14:41:22.103Z,19.13
2019-04-07T14:44:20.422Z,18.37
2019-04-07T14:47:09.646Z,22.87
2019-04-07T14:50:07.968Z,17.13
2019-04-07T14:53:06.656Z,18.93
2019-04-07T14:55:54.648Z,23.07
2019-04-07T14:58:35.844Z,19.97
2019-04-07T15:01:21.425Z,18.30
2019-04-07T15:03:52.464Z,18.30
2019-04-07T15:06:22.891Z,22.60
2019-04-07T15:09:03.111Z,22.87
2019-04-07T15:12:16.931Z,18.13
2019-04-07T15:14:37.380Z,23.00
2019-04-07T15:17:09.462Z,25.07
2019-04-07T15:19:41.152Z,22.47
2019-04-07T15:22:12.120Z,19.97
2019-04-07T15:24:42.865Z,19.40
2019-04-07T15:27:13.223Z,18.60
2019-04-07T15:29:45.045Z,18.20
2019-04-07T15:32:17.087Z,18.57
2019-04-07T15:34:47.902Z,21.23
2019-04-07T15:37:21.571Z,21.60
2019-04-07T15:40:00.451Z,20.10
2019-04-07T15:42:35.178Z,21.57
2019-04-07T15:45:11.263Z,27.10
2019-04-07T15:47:42.274Z,20.77
2019-04-07T15:50:13.790Z,24.10
2019-04-07T15:52:46.973Z,21.27
2019-04-07T15:55:17.640Z,22.90
2019-04-07T15:57:51.130Z,22.23
2019-04-07T16:00:23.811Z,25.57
2019-04-07T16:03:00.292Z,24.60
2019-04-07T16:05:38.036Z,20.37
2019-04-07T16:08:05.247Z,26.17
2019-04-07T16:10:41.351Z,23.43
2019-04-07T16:13:15.479Z,20.47
2019-04-07T16:15:53.675Z,22.63
2019-04-07T16:18:26.345Z,22.20
2019-04-07T16:20:58.028Z,26.90
2019-04-07T16:23:28.352Z,27.57
2019-04-07T16:26:00.584Z,24.80
2019-04-07T16:28:30.860Z,23.10
2019-04-07T16:31:01.563Z,21.77
2019-04-07T16:33:34.112Z,20.47
2019-04-07T16:36:04.403Z,25.17
2019-04-07T16:38:35.320Z,20.80
2019-04-07T16:41:06.559Z,23.40
2019-04-07T16:43:37.970Z,23.73
2019-04-07T16:46:08.852Z,31.67
2019-04-07T16:48:40.261Z,22.13
2019-04-07T16:51:11.281Z,29.07
2019-04-07T16:53:43.332Z,23.57
2019-04-07T16:56:14.802Z,25.80
2019-04-07T16:58:50.503Z,24.13
2019-04-07T17:01:24.591Z,22.50
2019-04-07T17:03:56.493Z,22.43
2019-04-07T17:06:31.897Z,26.90
2019-04-07T17:08:59.254Z,24.10
2019-04-07T17:11:32.259Z,28.63
2019-04-07T17:14:03.251Z,23.70
2019-04-07T17:16:34.655Z,23.60
2019-04-07T17:19:05.238Z,20.53
2019-04-07T17:21:37.669Z,22.67
2019-04-07T17:24:07.937Z,19.97
2019-04-07T17:26:39.405Z,20.47
2019-04-07T17:29:09.808Z,23.67
2019-04-07T17:31:41.126Z,26.13
2019-04-07T17:34:13.217Z,20.27
2019-04-07T17:36:44.062Z,21.63
2019-04-07T17:39:42.624Z,19.50
2019-04-07T17:42:14.424Z,22.00
2019-04-07T17:45:15.115Z,20.40
2019-04-07T17:48:23.379Z,24.23
2019-04-07T17:51:06.350Z,20.63
2019-04-07T17:53:45.361Z,19.83
2019-04-07T17:56:30.006Z,22.93
2019-04-07T17:59:10.323Z,19.67
2019-04-07T18:02:04.444Z,21.10
2019-04-07T18:04:55.035Z,21.73
2019-04-07T18:07:48.696Z,20.13
2019-04-07T18:10:39.155Z,23.53
2019-04-07T18:13:44.045Z,18.97
2019-04-07T18:16:31.870Z,23.83
2019-04-07T18:19:15.508Z,22.70
2019-04-07T18:22:10.709Z,20.57
2019-04-07T18:25:01.146Z,23.67
2019-04-07T18:27:48.681Z,20.63
2019-04-07T18:30:36.988Z,20.53
2019-04-07T18:33:25.345Z,23.73
2019-04-07T18:36:18.046Z,21.10
2019-04-07T18:39:03.336Z,24.03
2019-04-07T18:41:53.265Z,24.13
2019-04-07T18:44:58.521Z,22.20
2019-04-07T18:47:55.890Z,21.53
2019-04-07T18:50:43.344Z,25.23
2019-04-07T18:53:50.828Z,23.67
2019-04-07T18:56:49.570Z,22.37
2019-04-07T18:59:29.226Z,24.47
2019-04-07T19:02:18.220Z,27.93
2019-04-07T19:04:58.194Z,30.63
2019-04-07T19:07:48.555Z,22.90
2019-04-07T19:10:25.720Z,28.60
2019-04-07T19:13:17.677Z,23.10
2019-04-07T19:16:04.953Z,26.47
2019-04-07T19:19:03.271Z,24.63
2019-04-07T19:22:04.696Z,27.27
2019-04-07T19:25:05.098Z,23.27
2019-04-07T19:28:03.732Z,25.93
2019-04-07T19:30:52.466Z,28.63
2019-04-07T19:33:42.354Z,24.27
2019-04-07T19:36:30.519Z,24.10
2019-04-07T19:39:23.522Z,25.60
2019-04-07T19:42:18.186Z,26.93
2019-04-07T19:45:11.235Z,22.87
2019-04-07T19:47:59.383Z,24.77
2019-04-07T19:50:47.506Z,25.23
2019-04-07T19:53:32.672Z,29.17
2019-04-07T19:56:37.530Z,25.50
2019-04-07T19:59:30.171Z,28.67
2019-04-07T20:02:20.286Z,27.03
2019-04-07T20:05:10.128Z,25.80
2019-04-07T20:08:01.190Z,28.30
2019-04-07T20:10:52.336Z,25.57
2019-04-07T20:13:42.734Z,26.03
2019-04-07T20:16:36.340Z,32.03
2019-04-07T20:19:41.123Z,31.27
2019-04-07T20:22:30.694Z,27.33
2019-04-07T20:25:33.333Z,31.23
2019-04-07T20:28:23.000Z,34.70
2019-04-07T20:31:08.503Z,32.73
2019-04-07T20:34:05.554Z,34.80
2019-04-07T20:36:55.039Z,31.27
2019-04-07T20:39:34.190Z,28.87
2019-04-07T20:42:15.901Z,30.80
2019-04-07T20:45:05.702Z,28.87
2019-04-07T20:47:53.272Z,32.03
2019-04-07T20:50:48.835Z,27.57
2019-04-07T20:53:40.959Z,32.93
2019-04-07T20:56:31.399Z,32.40
2019-04-07T20:59:25.296Z,30.77
2019-04-07T21:02:12.688Z,30.93
2019-04-07T21:05:05.112Z,30.33
2019-04-07T21:08:00.814Z,31.90
2019-04-07T21:10:41.464Z,30.23
2019-04-07T21:13:21.757Z,29.20
2019-04-07T21:16:07.010Z,29.10
2019-04-07T21:19:12.465Z,31.07
2019-04-07T21:22:04.237Z,31.33
2019-04-07T21:24:45.537Z,31.30
2019-04-07T21:27:44.354Z,29.80
2019-04-07T21:30:36.833Z,31.23
2019-04-07T21:33:16.030Z,31.70
2019-04-07T21:36:20.493Z,32.33
2019-04-07T21:39:09.889Z,34.27
2019-04-07T21:41:59.173Z,30.60
2019-04-07T21:44:59.912Z,35.00
2019-04-07T21:47:42.602Z,35.63
2019-04-07T21:50:24.524Z,35.43
2019-04-07T21:53:33.546Z,35.47
2019-04-07T21:56:43.108Z,36.30
2019-04-07T21:59:21.476Z,35.57
2019-04-07T22:02:15.960Z,31.20
2019-04-07T22:04:58.829Z,31.60
2019-04-07T22:07:42.102Z,29.30
2019-04-07T22:10:13.598Z,31.43
2019-04-07T22:12:44.600Z,34.30
2019-04-07T22:15:15.384Z,35.33
2019-04-07T22:17:45.859Z,39.40
2019-04-07T22:20:18.868Z,31.33
2019-04-07T22:22:51.317Z,34.27
2019-04-07T22:25:36.211Z,38.73
2019-04-07T22:28:13.828Z,33.70
2019-04-07T22:30:45.510Z,32.87
2019-04-07T22:33:22.906Z,33.80
2019-04-07T22:35:51.400Z,34.03
2019-04-07T22:38:23.748Z,33.70
2019-04-07T22:40:54.372Z,33.63
2019-04-07T22:43:27.147Z,31.17
2019-04-07T22:46:06.248Z,31.90
2019-04-07T22:48:31.016Z,31.47
2019-04-07T22:51:04.123Z,30.47
2019-04-07T22:53:35.455Z,33.67
2019-04-07T22:56:07.800Z,32.83
2019-04-07T22:58:38.169Z,32.20
2019-04-07T23:01:09.038Z,30.20
2019-04-07T23:03:39.542Z,32.60
2019-04-07T23:06:10.612Z,30.97
2019-04-07T23:08:44.204Z,30.80
2019-04-07T23:11:16.120Z,31.20
2019-04-07T23:13:49.248Z,35.17
2019-04-07T23:16:20.333Z,34.60
2019-04-07T23:18:50.958Z,35.43
2019-04-07T23:21:21.514Z,30.80
2019-04-07T23:23:51.911Z,31.57
2019-04-07T23:26:26.452Z,33.37
2019-04-07T23:28:58.363Z,33.57
2019-04-07T23:31:30.416Z,36.40
2019-04-07T23:34:00.759Z,38.27
2019-04-07T23:36:32.003Z,33.43
2019-04-07T23:39:02.274Z,34.53
2019-04-07T23:41:34.008Z,37.27
2019-04-07T23:44:07.337Z,37.60
2019-04-07T23:46:37.934Z,34.07
2019-04-07T23:49:08.316Z,34.40
2019-04-07T23:51:41.407Z,37.27
2019-04-07T23:54:14.269Z,33.87
2019-04-07T23:56:47.756Z,33.70
2019-04-07T23:59:18.752Z,35.13
